Time;durP1;ratioP1;P1;durP2;ratioP2;P2;SDS_P1;SDS_P2;PMS_P1;PMS_P2;Temp;Humidity;BMP_temperature;BMP_pressure;BME280_temperature;BME280_humidity;BME280_pressure;Samples;Min_cycle;Max_cycle;Signal;HPM_P1;HPM_P2
2021/05/30 00:02:12;;;;;;;17.17;14.90;;;12.40;91.10;;;;;;5067649;28;20041;-55
2021/05/30 00:04:38;;;;;;;23.73;15.77;;;12.40;91.10;;;;;;5073726;28;20032;-56
2021/05/30 00:07:04;;;;;;;18.95;15.52;;;12.40;91.20;;;;;;5060945;28;20037;-55
2021/05/30 00:09:30;;;;;;;19.77;14.57;;;12.30;91.40;;;;;;5061485;28;20013;-54
2021/05/30 00:11:56;;;;;;;19.70;15.52;;;12.30;91.50;;;;;;5055829;28;20102;-54
2021/05/30 00:14:21;;;;;;;21.30;15.40;;;12.20;91.60;;;;;;5074101;28;20439;-55
2021/05/30 00:16:47;;;;;;;24.13;16.02;;;12.20;91.60;;;;;;5073710;28;20048;-56
2021/05/30 00:19:13;;;;;;;21.92;16.77;;;12.20;91.70;;;;;;5074100;28;20028;-53
2021/05/30 00:21:39;;;;;;;21.17;16.08;;;12.10;91.70;;;;;;5072834;28;20031;-54
2021/05/30 00:24:06;;;;;;;19.05;15.48;;;12.00;91.90;;;;;;5073836;28;20494;-54
2021/05/30 00:26:31;;;;;;;21.48;16.15;;;12.00;92.10;;;;;;5073614;28;20035;-53
2021/05/30 00:28:57;;;;;;;19.38;14.80;;;12.10;92.00;;;;;;5072372;28;20041;-55
2021/05/30 00:31:22;;;;;;;22.55;16.25;;;12.00;91.90;;;;;;5073735;28;20039;-53
2021/05/30 00:33:49;;;;;;;19.80;14.88;;;12.00;92.00;;;;;;5073073;28;20040;-55
2021/05/30 00:36:14;;;;;;;21.20;15.85;;;12.00;91.90;;;;;;5073478;28;20025;-51
2021/05/30 00:38:40;;;;;;;21.30;16.42;;;12.00;91.90;;;;;;5069133;28;20403;-55
2021/05/30 00:41:05;;;;;;;19.95;15.93;;;12.00;92.00;;;;;;5060011;28;20056;-50
2021/05/30 00:43:45;;;;;;;22.83;15.48;;;11.90;92.20;;;;;;5073566;28;20025;-54
2021/05/30 00:46:11;;;;;;;18.48;15.40;;;11.90;92.20;;;;;;5073637;28;20028;-57
2021/05/30 00:48:37;;;;;;;21.40;15.60;;;11.90;92.30;;;;;;5071660;28;20051;-56
2021/05/30 00:51:03;;;;;;;22.55;16.45;;;11.80;92.30;;;;;;5072920;28;20383;-53
2021/05/30 00:53:29;;;;;;;21.33;15.63;;;12.00;92.10;;;;;;5072901;28;20033;-53
2021/05/30 00:55:55;;;;;;;23.10;16.33;;;12.00;92.10;;;;;;5072322;28;20039;-56
2021/05/30 00:58:20;;;;;;;20.52;15.65;;;11.70;92.40;;;;;;5061395;28;20055;-57
2021/05/30 01:00:46;;;;;;;22.77;16.75;;;11.70;92.50;;;;;;5072259;28;20032;-56
2021/05/30 01:03:11;;;;;;;24.83;16.85;;;11.50;93.00;;;;;;5071955;28;20072;-56
2021/05/30 01:05:37;;;;;;;20.83;16.65;;;11.60;92.70;;;;;;5056923;28;20057;-57
2021/05/30 01:08:03;;;;;;;20.65;15.50;;;11.70;92.50;;;;;;5072280;28;20044;-57
2021/05/30 01:10:34;;;;;;;20.73;15.57;;;11.50;93.10;;;;;;5067905;28;20489;-56
2021/05/30 01:13:01;;;;;;;23.20;16.90;;;11.70;92.80;;;;;;5065441;28;20028;-56
2021/05/30 01:15:28;;;;;;;25.40;16.77;;;11.60;92.80;;;;;;5072659;28;20120;-56
2021/05/30 01:17:54;;;;;;;26.10;17.38;;;11.30;93.40;;;;;;5072244;28;20029;-52
2021/05/30 01:20:22;;;;;;;21.55;16.38;;;11.40;93.00;;;;;;5072722;28;20158;-55
2021/05/30 01:22:48;;;;;;;22.60;17.20;;;11.50;93.00;;;;;;5075265;28;20032;-54
2021/05/30 01:25:16;;;;;;;21.55;16.73;;;11.50;92.90;;;;;;5071801;28;20035;-56
2021/05/30 01:27:42;;;;;;;22.40;16.30;;;11.60;92.70;;;;;;5034859;28;20033;-55
2021/05/30 01:30:10;;;;;;;20.17;16.70;;;11.70;92.70;;;;;;5067785;28;20040;-53
2021/05/30 01:32:35;;;;;;;22.52;16.02;;;11.80;92.40;;;;;;5074557;28;20032;-53
2021/05/30 01:35:02;;;;;;;21.75;16.58;;;11.80;92.50;;;;;;5088324;28;20449;-53
2021/05/30 01:37:27;;;;;;;22.67;17.25;;;11.70;92.60;;;;;;5072297;28;20044;-56
2021/05/30 01:39:53;;;;;;;23.48;16.80;;;11.70;92.50;;;;;;5072910;28;20538;-55
2021/05/30 01:42:19;;;;;;;22.38;17.60;;;11.70;92.50;;;;;;5071838;28;20078;-53
2021/05/30 01:44:45;;;;;;;22.55;17.58;;;11.80;92.50;;;;;;5072071;28;20028;-55
2021/05/30 01:47:11;;;;;;;22.48;17.30;;;11.50;93.00;;;;;;5072117;28;20078;-56
2021/05/30 01:49:36;;;;;;;23.85;17.45;;;11.60;92.90;;;;;;5070039;28;20064;-54
2021/05/30 01:52:05;;;;;;;20.83;17.08;;;11.60;93.00;;;;;;5072099;28;20039;-54
2021/05/30 01:54:31;;;;;;;23.33;17.25;;;11.50;93.10;;;;;;5072156;28;20037;-56
2021/05/30 01:57:02;;;;;;;19.15;16.50;;;11.50;92.90;;;;;;5040554;28;20038;-60
2021/05/30 01:59:29;;;;;;;23.70;17.85;;;11.40;93.40;;;;;;5071937;28;20036;-54
2021/05/30 02:01:56;;;;;;;21.67;17.23;;;11.40;93.30;;;;;;5072200;28;20027;-56
2021/05/30 02:04:38;;;;;;;23.95;18.65;;;11.50;93.10;;;;;;5072443;28;20107;-53
2021/05/30 02:07:04;;;;;;;21.27;16.80;;;11.60;92.90;;;;;;5070407;28;20020;-56
2021/05/30 02:09:30;;;;;;;26.73;18.25;;;11.60;92.90;;;;;;5071790;28;20487;-57
2021/05/30 02:11:57;;;;;;;22.38;17.77;;;11.60;92.80;;;;;;5068606;28;20175;-50
2021/05/30 02:14:23;;;;;;;27.50;19.27;;;11.60;92.80;;;;;;5061170;28;20040;-54
2021/05/30 02:16:49;;;;;;;23.95;18.30;;;11.40;92.90;;;;;;5071775;28;20036;-54
2021/05/30 02:19:15;;;;;;;26.77;18.80;;;11.40;93.20;;;;;;5071600;28;20082;-54
2021/05/30 02:21:49;;;;;;;25.48;18.80;;;11.40;93.20;;;;;;5070240;28;20040;-51
2021/05/30 02:24:16;;;;;;;27.73;19.88;;;11.30;93.30;;;;;;5061063;28;20040;-54
2021/05/30 02:26:41;;;;;;;26.92;18.73;;;11.10;93.60;;;;;;5071598;28;20557;-54
2021/05/30 02:29:08;;;;;;;23.58;18.55;;;11.10;93.60;;;;;;5057293;28;20041;-54
2021/05/30 02:31:34;;;;;;;25.75;19.15;;;11.00;93.60;;;;;;5071643;28;20028;-52
2021/05/30 02:34:00;;;;;;;24.88;17.50;;;11.00;93.60;;;;;;5071440;28;20384;-54
2021/05/30 02:36:27;;;;;;;27.27;20.70;;;11.10;93.60;;;;;;5071757;28;20024;-51
2021/05/30 02:38:53;;;;;;;24.52;19.25;;;11.00;93.70;;;;;;5070876;28;20446;-56
2021/05/30 02:41:19;;;;;;;24.20;19.75;;;11.00;93.70;;;;;;5071118;28;20376;-57
2021/05/30 02:43:45;;;;;;;26.08;19.13;;;11.10;93.60;;;;;;5070885;28;20047;-57
2021/05/30 02:46:10;;;;;;;28.33;20.25;;;11.00;94.00;;;;;;5070725;28;20028;-54
2021/05/30 02:48:36;;;;;;;23.48;19.15;;;10.90;93.70;;;;;;5071334;28;20040;-51
2021/05/30 02:51:03;;;;;;;24.95;20.10;;;11.00;93.70;;;;;;5071314;28;20080;-54
2021/05/30 02:53:30;;;;;;;25.80;19.92;;;11.00;93.60;;;;;;5054208;28;20063;-55
2021/05/30 02:56:03;;;;;;;27.00;20.15;;;11.00;93.80;;;;;;5070292;28;20119;-53
2021/05/30 02:58:29;;;;;;;25.92;20.70;;;10.90;93.70;;;;;;5071081;28;20043;-56
2021/05/30 03:00:56;;;;;;;24.92;20.30;;;10.90;93.80;;;;;;5071500;28;20063;-57
2021/05/30 03:03:22;;;;;;;24.98;19.27;;;10.90;93.80;;;;;;5071176;28;20097;-57
2021/05/30 03:05:48;;;;;;;28.13;20.60;;;10.80;93.80;;;;;;5071495;28;20029;-53
2021/05/30 03:08:14;;;;;;;28.95;20.80;;;10.80;93.90;;;;;;5059455;28;20036;-52
2021/05/30 03:10:41;;;;;;;25.38;19.92;;;10.80;93.80;;;;;;5069590;28;20096;-55
2021/05/30 03:13:06;;;;;;;26.02;20.40;;;10.80;93.80;;;;;;5071244;28;20584;-54
2021/05/30 03:15:32;;;;;;;27.15;21.42;;;10.70;94.00;;;;;;5070741;28;20111;-49
2021/05/30 03:17:57;;;;;;;28.83;20.85;;;10.70;94.00;;;;;;5071068;28;20032;-53
2021/05/30 03:20:23;;;;;;;26.20;21.02;;;10.60;94.20;;;;;;5070634;28;20062;-51
2021/05/30 03:22:49;;;;;;;28.95;20.70;;;10.40;94.60;;;;;;5070916;28;20071;-54
2021/05/30 03:25:15;;;;;;;26.40;19.92;;;10.40;94.70;;;;;;5070586;28;20029;-50
2021/05/30 03:27:41;;;;;;;30.58;21.65;;;10.30;94.80;;;;;;5070885;28;20078;-53
2021/05/30 03:30:09;;;;;;;29.27;21.45;;;10.30;94.90;;;;;;5071175;28;20068;-55
2021/05/30 03:32:34;;;;;;;25.58;20.00;;;10.30;94.90;;;;;;5070810;28;20039;-54
2021/05/30 03:35:01;;;;;;;26.08;20.17;;;10.60;94.20;;;;;;5067645;28;20124;-55
2021/05/30 03:37:27;;;;;;;32.25;22.85;;;10.50;94.50;;;;;;5070718;28;20040;-53
2021/05/30 03:39:56;;;;;;;27.85;19.95;;;10.50;94.30;;;;;;5070747;28;20033;-53
2021/05/30 03:42:25;;;;;;;28.88;20.48;;;10.50;94.70;;;;;;5072463;28;20134;-53
2021/05/30 03:44:51;;;;;;;29.58;21.33;;;10.60;94.30;;;;;;5070489;28;20033;-56
2021/05/30 03:47:17;;;;;;;25.10;18.42;;;10.70;94.10;;;;;;5071961;28;20059;-52
2021/05/30 03:49:43;;;;;;;26.85;20.38;;;10.80;93.80;;;;;;5074365;28;20032;-54
2021/05/30 03:52:09;;;;;;;25.13;19.80;;;11.00;93.60;;;;;;5074476;28;20052;-55
2021/05/30 03:54:35;;;;;;;31.33;20.27;;;10.80;93.90;;;;;;5074416;28;20048;-50
2021/05/30 03:57:02;;;;;;;26.55;20.48;;;10.50;94.40;;;;;;5074131;28;20035;-56
2021/05/30 03:59:27;;;;;;;28.10;19.95;;;10.70;94.00;;;;;;5073977;28;20120;-53
2021/05/30 04:01:53;;;;;;;25.55;19.98;;;10.70;93.90;;;;;;5061444;28;20178;-56
2021/05/30 04:04:19;;;;;;;25.58;21.20;;;10.80;93.90;;;;;;5073249;28;20040;-57
2021/05/30 04:06:44;;;;;;;29.38;19.88;;;10.60;94.00;;;;;;5070279;28;20033;-57
2021/05/30 04:09:10;;;;;;;27.55;20.63;;;10.70;93.90;;;;;;5074075;28;20031;-55
2021/05/30 04:11:36;;;;;;;25.85;21.70;;;10.70;93.80;;;;;;5074108;28;20075;-56
2021/05/30 04:14:02;;;;;;;23.48;19.58;;;10.60;94.00;;;;;;5056734;28;20040;-55
2021/05/30 04:16:28;;;;;;;29.15;20.48;;;10.70;94.10;;;;;;5074156;28;20060;-53
2021/05/30 04:18:53;;;;;;;23.45;18.83;;;10.60;94.40;;;;;;5073737;28;20598;-52
2021/05/30 04:21:19;;;;;;;23.40;18.10;;;10.80;94.20;;;;;;5074552;28;20047;-57
2021/05/30 04:23:44;;;;;;;23.40;19.60;;;11.00;93.70;;;;;;5072221;28;20488;-55
2021/05/30 04:26:10;;;;;;;29.23;20.10;;;11.20;93.30;;;;;;5073683;28;20107;-52
2021/05/30 04:28:36;;;;;;;23.08;19.55;;;11.40;92.70;;;;;;5073426;28;20546;-53
2021/05/30 04:31:02;;;;;;;25.48;19.77;;;11.30;92.80;;;;;;5074006;28;20031;-55
2021/05/30 04:33:27;;;;;;;25.10;19.45;;;11.30;93.00;;;;;;5073497;28;20033;-56
2021/05/30 04:35:53;;;;;;;23.70;19.70;;;11.40;92.80;;;;;;5073436;28;20041;-55
2021/05/30 04:38:19;;;;;;;22.67;17.75;;;11.40;92.90;;;;;;5073451;28;20040;-52
2021/05/30 04:40:45;;;;;;;24.00;19.38;;;11.50;92.60;;;;;;5073213;28;20041;-53
2021/05/30 04:43:11;;;;;;;23.45;18.35;;;11.60;92.70;;;;;;5074069;28;20031;-50
2021/05/30 04:45:36;;;;;;;23.70;20.08;;;11.70;92.60;;;;;;5073102;28;20033;-52
2021/05/30 04:48:02;;;;;;;24.05;18.63;;;11.70;92.60;;;;;;5073574;28;20499;-51
2021/05/30 04:50:28;;;;;;;25.08;18.98;;;11.60;92.60;;;;;;5073505;28;20101;-52
2021/05/30 04:52:54;;;;;;;25.08;19.75;;;11.60;92.60;;;;;;5072391;28;20190;-54
2021/05/30 04:55:20;;;;;;;24.55;20.15;;;11.70;92.60;;;;;;5073546;28;20500;-54
2021/05/30 04:57:46;;;;;;;24.95;19.35;;;11.50;93.20;;;;;;5073421;28;20349;-54
2021/05/30 05:00:13;;;;;;;24.08;18.85;;;11.70;92.70;;;;;;5073037;28;20120;-54
2021/05/30 05:02:39;;;;;;;23.98;19.80;;;11.70;92.90;;;;;;5074029;28;20039;-54
2021/05/30 05:05:06;;;;;;;25.73;18.77;;;11.40;93.40;;;;;;5072576;28;20020;-55
2021/05/30 05:07:32;;;;;;;23.77;19.48;;;11.50;93.30;;;;;;5072439;28;20085;-56
2021/05/30 05:09:58;;;;;;;24.25;19.77;;;11.50;93.20;;;;;;5072588;28;20024;-54
2021/05/30 05:12:24;;;;;;;23.17;18.70;;;11.40;93.50;;;;;;5072512;28;20060;-55
2021/05/30 05:14:49;;;;;;;23.35;19.52;;;11.60;93.20;;;;;;5041004;28;20064;-54
2021/05/30 05:17:15;;;;;;;20.80;16.73;;;11.70;93.00;;;;;;5072657;28;20052;-56
2021/05/30 05:19:41;;;;;;;24.33;18.65;;;11.60;93.30;;;;;;5072559;28;20089;-53
2021/05/30 05:22:07;;;;;;;27.55;18.33;;;11.90;93.10;;;;;;5072398;28;20043;-56
2021/05/30 05:24:32;;;;;;;24.55;18.05;;;11.90;92.80;;;;;;5072775;28;20033;-56
2021/05/30 05:27:01;;;;;;;22.35;17.10;;;11.90;93.00;;;;;;5072514;28;20040;-54
2021/05/30 05:29:26;;;;;;;28.83;18.77;;;12.00;92.90;;;;;;5055204;28;20089;-54
2021/05/30 05:31:52;;;;;;;23.23;18.10;;;12.00;92.80;;;;;;5060010;28;20104;-56
2021/05/30 05:34:18;;;;;;;21.33;17.65;;;12.00;92.80;;;;;;5072715;28;20039;-53
2021/05/30 05:36:43;;;;;;;22.75;18.05;;;11.80;93.00;;;;;;5071488;28;20039;-53
2021/05/30 05:39:09;;;;;;;20.98;17.23;;;11.80;93.40;;;;;;5072437;28;20446;-55
2021/05/30 05:41:34;;;;;;;22.42;18.13;;;12.00;93.10;;;;;;5072262;28;20036;-51
2021/05/30 05:44:00;;;;;;;22.02;17.13;;;12.20;92.90;;;;;;5071915;28;20033;-54
2021/05/30 05:46:27;;;;;;;20.92;17.38;;;12.40;92.70;;;;;;5071904;28;20023;-56
2021/05/30 05:48:53;;;;;;;23.70;17.42;;;12.30;92.60;;;;;;5072272;28;20025;-55
2021/05/30 05:51:19;;;;;;;20.55;17.02;;;12.30;92.50;;;;;;5072136;28;20385;-55
2021/05/30 05:53:44;;;;;;;23.42;17.67;;;12.30;92.20;;;;;;5071265;28;20040;-56
2021/05/30 05:56:10;;;;;;;21.85;17.42;;;12.40;92.40;;;;;;5072388;28;20028;-54
2021/05/30 05:58:35;;;;;;;19.13;16.63;;;12.50;92.40;;;;;;5071919;28;20044;-53
2021/05/30 06:01:01;;;;;;;24.30;18.17;;;12.50;92.20;;;;;;5071941;28;20530;-52
2021/05/30 06:03:26;;;;;;;21.63;17.15;;;12.40;92.20;;;;;;5072020;28;20395;-52
2021/05/30 06:05:52;;;;;;;19.98;16.80;;;12.20;92.50;;;;;;5055726;28;20036;-55
2021/05/30 06:08:18;;;;;;;22.13;16.70;;;12.40;92.30;;;;;;5071863;28;20040;-54
2021/05/30 06:10:43;;;;;;;21.00;17.40;;;12.60;92.40;;;;;;5071706;28;20590;-53
2021/05/30 06:13:10;;;;;;;25.27;18.02;;;12.60;91.90;;;;;;5071924;28;20051;-54
2021/05/30 06:15:45;;;;;;;18.73;16.48;;;12.60;92.30;;;;;;5072274;28;20037;-57
2021/05/30 06:18:15;;;;;;;22.10;15.85;;;12.60;92.30;;;;;;5071332;28;20036;-54
2021/05/30 06:20:43;;;;;;;16.90;15.10;;;12.80;92.00;;;;;;5071930;28;20040;-56
2021/05/30 06:23:09;;;;;;;19.52;14.73;;;13.10;91.40;;;;;;5071630;28;20037;-57
2021/05/30 06:25:35;;;;;;;20.33;15.98;;;13.40;90.80;;;;;;5038920;28;20021;-54
2021/05/30 06:28:02;;;;;;;20.13;15.73;;;13.40;90.40;;;;;;5068694;28;20043;-51
2021/05/30 06:30:29;;;;;;;24.17;14.07;;;13.40;90.30;;;;;;5070877;28;20021;-57
2021/05/30 06:32:55;;;;;;;17.23;12.93;;;13.40;88.70;;;;;;5071455;28;20111;-53
2021/05/30 06:35:21;;;;;;;19.70;14.63;;;13.20;89.30;;;;;;5070248;28;20116;-58
2021/05/30 06:37:47;;;;;;;18.33;13.73;;;13.20;89.70;;;;;;5033798;28;20037;-56
2021/05/30 06:40:13;;;;;;;17.73;13.80;;;13.30;89.60;;;;;;5065424;28;20154;-54
2021/05/30 06:42:39;;;;;;;19.55;14.98;;;13.40;89.30;;;;;;5071404;28;20226;-54
2021/05/30 06:45:05;;;;;;;18.60;14.95;;;13.30;89.30;;;;;;5071650;28;20127;-57
2021/05/30 06:47:31;;;;;;;18.48;15.13;;;13.30;89.90;;;;;;5071083;28;20461;-56
2021/05/30 06:49:56;;;;;;;18.13;14.07;;;13.40;88.80;;;;;;5057422;28;20107;-55
2021/05/30 06:52:22;;;;;;;21.15;14.65;;;13.40;88.70;;;;;;5071321;28;20647;-55
2021/05/30 06:54:48;;;;;;;17.92;13.93;;;13.70;88.80;;;;;;5071314;28;20036;-53
2021/05/30 06:57:14;;;;;;;16.92;13.95;;;13.70;87.50;;;;;;5071453;28;20037;-55
2021/05/30 06:59:39;;;;;;;19.27;13.52;;;13.80;87.50;;;;;;5071103;28;20025;-58
2021/05/30 07:02:05;;;;;;;18.52;13.13;;;13.80;86.60;;;;;;5066203;28;20047;-56
2021/05/30 07:04:31;;;;;;;17.77;14.75;;;13.90;86.60;;;;;;5071175;28;20396;-56
2021/05/30 07:06:56;;;;;;;18.15;13.95;;;13.90;85.40;;;;;;5070966;28;20029;-56
2021/05/30 07:09:22;;;;;;;21.42;14.10;;;13.80;86.30;;;;;;5071251;28;20103;-53
2021/05/30 07:11:48;;;;;;;15.15;12.35;;;14.00;85.50;;;;;;5070745;28;20448;-53
2021/05/30 07:14:14;;;;;;;14.10;12.60;;;14.20;84.10;;;;;;5073362;28;20599;-55
2021/05/30 07:16:39;;;;;;;14.35;10.73;;;14.20;82.20;;;;;;5076909;28;20111;-55
2021/05/30 07:19:05;;;;;;;14.57;11.40;;;14.40;81.00;;;;;;5076454;28;20068;-53
2021/05/30 07:21:31;;;;;;;14.55;11.30;;;14.20;80.10;;;;;;5074846;28;20029;-55
2021/05/30 07:23:56;;;;;;;13.73;10.57;;;14.20;78.70;;;;;;5063213;28;20040;-55
2021/05/30 07:26:22;;;;;;;12.27;9.27;;;14.10;79.50;;;;;;5075113;28;20437;-53
2021/05/30 07:28:48;;;;;;;12.27;9.52;;;14.20;78.40;;;;;;5075267;28;20033;-54
2021/05/30 07:31:14;;;;;;;13.80;9.60;;;14.40;78.70;;;;;;5074900;28;20115;-56
2021/05/30 07:33:40;;;;;;;11.20;9.25;;;14.60;78.10;;;;;;5073545;28;20475;-53
2021/05/30 07:36:06;;;;;;;10.63;8.85;;;14.60;76.60;;;;;;5074906;28;20044;-55
2021/05/30 07:38:33;;;;;;;15.70;10.52;;;14.60;76.40;;;;;;5074509;28;20044;-52
2021/05/30 07:40:59;;;;;;;12.25;9.30;;;14.70;76.90;;;;;;5060940;28;20434;-57
2021/05/30 07:43:25;;;;;;;21.60;14.57;;;14.80;75.80;;;;;;5074890;28;20033;-55
2021/05/30 07:45:51;;;;;;;18.00;13.00;;;14.90;77.00;;;;;;5056877;28;20514;-56
2021/05/30 07:48:16;;;;;;;12.32;10.43;;;15.10;77.50;;;;;;5071120;28;20041;-56
2021/05/30 07:50:42;;;;;;;13.63;10.80;;;15.20;77.10;;;;;;5066391;28;20025;-55
2021/05/30 07:53:07;;;;;;;12.77;10.90;;;15.30;77.60;;;;;;5074156;28;20040;-56
2021/05/30 07:55:33;;;;;;;12.55;9.82;;;15.40;76.50;;;;;;5074503;28;20028;-54
2021/05/30 07:57:59;;;;;;;13.10;9.98;;;15.50;75.80;;;;;;5074002;28;20028;-54
2021/05/30 08:00:25;;;;;;;12.90;10.10;;;15.60;76.30;;;;;;5064599;28;20052;-56
2021/05/30 08:02:52;;;;;;;12.77;10.30;;;15.70;77.40;;;;;;5062054;28;20575;-54
2021/05/30 08:05:20;;;;;;;12.55;9.93;;;15.80;77.20;;;;;;5065402;28;20111;-54
2021/05/30 08:07:46;;;;;;;11.57;10.30;;;15.80;77.20;;;;;;5065455;28;20563;-54
2021/05/30 08:10:13;;;;;;;15.38;12.50;;;15.50;77.10;;;;;;5074285;28;20089;-56
2021/05/30 08:12:39;;;;;;;24.45;14.90;;;15.40;78.00;;;;;;5049709;28;20068;-57
2021/05/30 08:15:06;;;;;;;16.15;11.23;;;15.40;78.20;;;;;;5056548;28;20411;-54
2021/05/30 08:17:32;;;;;;;12.48;10.27;;;15.50;78.70;;;;;;5072157;28;20036;-56
2021/05/30 08:19:57;;;;;;;14.73;11.05;;;15.60;76.90;;;;;;5061833;28;20040;-54
2021/05/30 08:22:23;;;;;;;16.30;10.77;;;15.20;77.90;;;;;;5058900;28;20573;-55
2021/05/30 08:24:49;;;;;;;11.52;9.85;;;15.10;78.50;;;;;;5072800;28;20044;-56
2021/05/30 08:27:15;;;;;;;13.07;10.20;;;15.40;78.40;;;;;;5073398;28;20250;-57
2021/05/30 08:29:41;;;;;;;13.68;8.82;;;15.40;77.10;;;;;;5073546;28;20056;-56
2021/05/30 08:32:08;;;;;;;11.13;9.23;;;15.40;76.10;;;;;;5073926;28;20029;-54
2021/05/30 08:34:34;;;;;;;14.68;9.50;;;15.50;76.60;;;;;;5073566;28;20036;-56
2021/05/30 08:37:00;;;;;;;11.32;8.65;;;15.70;76.20;;;;;;5073703;28;20037;-56
2021/05/30 08:39:28;;;;;;;10.27;8.95;;;15.80;75.30;;;;;;5070843;28;20040;-56
2021/05/30 08:41:54;;;;;;;11.18;9.18;;;15.70;74.90;;;;;;5073530;28;20115;-56
2021/05/30 08:44:19;;;;;;;12.35;9.25;;;15.80;75.70;;;;;;5046772;28;20592;-57
2021/05/30 08:46:49;;;;;;;12.27;9.02;;;16.00;74.60;;;;;;5072874;28;20032;-56
2021/05/30 08:49:15;;;;;;;10.13;7.60;;;15.70;74.10;;;;;;5070833;28;20059;-54
2021/05/30 08:51:44;;;;;;;10.52;8.10;;;15.90;74.50;;;;;;5073500;28;20031;-53
2021/05/30 08:54:13;;;;;;;12.50;8.00;;;16.10;74.10;;;;;;5073280;28;20032;-55
2021/05/30 08:56:41;;;;;;;9.13;7.65;;;16.40;73.80;;;;;;5070008;28;20075;-56
2021/05/30 08:59:19;;;;;;;13.43;8.88;;;16.50;72.80;;;;;;5054670;28;20033;-53
2021/05/30 09:01:46;;;;;;;11.77;8.82;;;16.70;72.50;;;;;;5072684;28;20020;-56
2021/05/30 09:04:15;;;;;;;11.10;8.70;;;16.60;72.00;;;;;;5072392;28;20131;-53
2021/05/30 09:06:45;;;;;;;11.02;8.23;;;16.50;72.90;;;;;;5038083;28;20028;-56
2021/05/30 09:09:12;;;;;;;10.25;8.15;;;16.60;73.40;;;;;;5071799;28;20025;-52
2021/05/30 09:11:45;;;;;;;9.50;7.95;;;16.70;73.60;;;;;;5069972;28;20037;-53
2021/05/30 09:14:20;;;;;;;8.60;6.75;;;17.00;73.00;;;;;;5072884;28;20044;-58
2021/05/30 09:16:56;;;;;;;11.02;7.00;;;17.00;69.70;;;;;;5071065;28;20024;-53
2021/05/30 09:19:43;;;;;;;8.77;6.78;;;17.00;70.00;;;;;;5054515;28;20036;-58
2021/05/30 09:22:15;;;;;;;12.73;7.25;;;17.10;70.20;;;;;;5057400;28;20037;-56
2021/05/30 09:24:56;;;;;;;8.82;7.03;;;17.40;69.30;;;;;;5054409;28;20102;-56
2021/05/30 09:27:24;;;;;;;11.05;6.97;;;17.50;69.50;;;;;;5054355;28;20515;-54
2021/05/30 09:30:18;;;;;;;8.68;7.55;;;17.70;69.10;;;;;;5055446;28;20089;-55
2021/05/30 09:33:03;;;;;;;9.80;6.80;;;17.60;68.20;;;;;;5051330;28;20037;-59
2021/05/30 09:35:43;;;;;;;10.35;6.95;;;17.70;68.90;;;;;;5052919;28;20036;-53
2021/05/30 09:38:18;;;;;;;7.55;6.70;;;17.60;68.20;;;;;;5051468;28;20397;-56
2021/05/30 09:40:48;;;;;;;13.23;7.25;;;17.70;67.40;;;;;;5051261;28;20571;-55
2021/05/30 09:43:20;;;;;;;8.23;6.70;;;18.00;67.50;;;;;;5056340;28;20048;-55
2021/05/30 09:45:56;;;;;;;9.40;6.60;;;18.10;66.60;;;;;;5055191;28;20346;-55
2021/05/30 09:48:25;;;;;;;9.10;6.82;;;17.80;65.50;;;;;;5060922;28;20109;-56
2021/05/30 09:51:07;;;;;;;7.03;6.18;;;17.70;65.70;;;;;;5041164;28;20147;-55
2021/05/30 09:53:42;;;;;;;8.40;6.47;;;17.50;65.20;;;;;;5072874;28;20048;-54
2021/05/30 09:56:28;;;;;;;9.10;6.43;;;17.30;65.60;;;;;;5047313;28;20035;-54
2021/05/30 09:58:54;;;;;;;8.32;6.30;;;17.50;67.90;;;;;;5064132;28;20056;-56
2021/05/30 10:01:20;;;;;;;9.40;5.78;;;17.70;66.40;;;;;;5072910;28;20419;-54
2021/05/30 10:03:46;;;;;;;7.50;5.72;;;18.00;65.20;;;;;;5052221;28;20083;-52
2021/05/30 10:06:12;;;;;;;8.38;6.20;;;18.20;64.60;;;;;;5072698;28;20028;-57
2021/05/30 10:08:38;;;;;;;6.97;5.63;;;18.50;63.70;;;;;;5072083;28;20063;-54
2021/05/30 10:11:04;;;;;;;8.65;5.53;;;18.60;63.50;;;;;;5072046;28;20064;-57
2021/05/30 10:13:30;;;;;;;9.48;6.40;;;18.60;62.90;;;;;;5072399;28;20488;-57
2021/05/30 10:15:56;;;;;;;6.60;5.65;;;18.60;63.90;;;;;;5072212;28;20036;-57
2021/05/30 10:18:51;;;;;;;7.38;5.57;;;18.60;61.60;;;;;;5071399;28;20488;-56
2021/05/30 10:21:17;;;;;;;;;;;18.50;61.70;;;;;;5053845;28;20036;-55
2021/05/30 10:23:46;;;;;;;8.55;5.32;;;18.40;61.00;;;;;;5073890;28;19912;-54
2021/05/30 10:26:20;;;;;;;8.25;5.22;;;18.70;60.90;;;;;;5071886;28;20044;-57
2021/05/30 10:29:08;;;;;;;9.30;5.07;;;18.90;60.30;;;;;;5073144;28;20040;-55
2021/05/30 10:31:35;;;;;;;21.42;13.88;;;18.70;60.30;;;;;;5073317;28;20297;-54
2021/05/30 10:34:10;;;;;;;8.93;6.38;;;18.70;61.00;;;;;;5071739;28;20036;-57
2021/05/30 10:36:44;;;;;;;6.95;5.57;;;18.80;60.60;;;;;;5071138;28;20021;-56
2021/05/30 10:39:28;;;;;;;15.07;8.85;;;18.70;59.00;;;;;;5071066;28;20033;-54
2021/05/30 10:42:17;;;;;;;6.20;5.13;;;18.50;60.40;;;;;;5068789;28;20716;-53
2021/05/30 10:44:51;;;;;;;6.88;5.80;;;18.90;60.50;;;;;;5070971;28;20085;-51
2021/05/30 10:47:18;;;;;;;6.57;5.18;;;19.20;60.70;;;;;;5069234;28;20040;-56
2021/05/30 10:50:17;;;;;;;9.27;5.32;;;19.20;58.70;;;;;;5070565;28;20060;-55
2021/05/30 10:52:43;;;;;;;10.63;5.93;;;18.90;59.40;;;;;;5053485;28;20090;-54
2021/05/30 10:55:15;;;;;;;8.02;5.55;;;19.10;59.90;;;;;;5077783;28;20039;-53
2021/05/30 10:57:43;;;;;;;6.63;5.20;;;19.40;58.50;;;;;;5077887;28;20032;-54
2021/05/30 11:00:21;;;;;;;6.32;5.20;;;19.30;57.60;;;;;;5060403;28;20584;-56
2021/05/30 11:03:05;;;;;;;5.63;4.88;;;19.40;58.50;;;;;;5068598;28;20120;-57
2021/05/30 11:05:44;;;;;;;6.82;5.47;;;19.40;58.00;;;;;;5076763;28;20025;-53
2021/05/30 11:08:30;;;;;;;7.10;4.47;;;19.70;57.80;;;;;;5074547;28;20036;-53
2021/05/30 11:11:11;;;;;;;6.43;4.78;;;19.90;56.50;;;;;;5048527;28;20048;-56
2021/05/30 11:13:59;;;;;;;8.00;4.63;;;19.90;55.90;;;;;;5077021;28;20033;-55
2021/05/30 11:16:29;;;;;;;5.25;4.30;;;19.60;56.00;;;;;;5077493;28;20048;-55
2021/05/30 11:18:59;;;;;;;5.68;4.57;;;19.50;56.40;;;;;;5077832;28;20605;-57
2021/05/30 11:21:46;;;;;;;5.72;4.28;;;19.30;56.20;;;;;;5053967;28;20040;-57
2021/05/30 11:24:14;;;;;;;8.35;5.05;;;19.10;56.90;;;;;;5054309;28;20435;-55
2021/05/30 11:26:58;;;;;;;6.45;4.90;;;19.30;56.80;;;;;;5074948;28;20047;-54
2021/05/30 11:29:24;;;;;;;8.10;4.80;;;19.20;56.40;;;;;;5076117;28;20033;-56
2021/05/30 11:31:50;;;;;;;5.43;4.50;;;19.40;56.30;;;;;;5077317;28;20085;-52
2021/05/30 11:34:16;;;;;;;5.68;4.78;;;19.00;56.40;;;;;;5077550;28;20369;-56
2021/05/30 11:36:42;;;;;;;7.55;4.30;;;18.70;56.50;;;;;;5076858;28;20075;-57
2021/05/30 11:39:16;;;;;;;6.47;4.60;;;18.70;56.40;;;;;;5076993;28;20041;-55
2021/05/30 11:41:56;;;;;;;5.27;4.03;;;19.00;57.20;;;;;;5078105;28;20561;-54
2021/05/30 11:44:23;;;;;;;7.63;4.38;;;19.30;57.20;;;;;;5059687;28;20060;-54
2021/05/30 11:46:54;;;;;;;5.90;4.40;;;19.40;56.90;;;;;;5077388;28;20025;-53
2021/05/30 11:49:24;;;;;;;7.30;5.78;;;19.10;55.60;;;;;;5077315;28;20016;-59
2021/05/30 11:52:01;;;;;;;7.35;4.70;;;18.90;56.20;;;;;;5066863;28;20638;-56
2021/05/30 11:54:34;;;;;;;6.70;4.88;;;19.00;57.30;;;;;;5076523;28;20031;-56
2021/05/30 11:57:02;;;;;;;6.38;4.25;;;19.30;56.10;;;;;;5076692;28;20389;-56
2021/05/30 11:59:38;;;;;;;7.03;4.22;;;19.70;55.20;;;;;;5076899;28;20484;-56
2021/05/30 12:02:04;;;;;;;5.55;4.45;;;19.80;54.80;;;;;;5075097;28;20131;-54
2021/05/30 12:04:33;;;;;;;7.28;4.68;;;19.60;54.90;;;;;;5071970;28;20029;-57
2021/05/30 12:07:00;;;;;;;7.57;6.03;;;19.70;54.20;;;;;;5073386;28;20055;-56
2021/05/30 12:09:50;;;;;;;5.35;4.40;;;19.90;56.10;;;;;;5073391;28;20032;-56
2021/05/30 12:12:43;;;;;;;5.43;4.53;;;20.20;52.80;;;;;;5081625;28;20028;-53
2021/05/30 12:15:21;;;;;;;4.90;4.38;;;20.30;54.40;;;;;;5067047;28;20062;-57
2021/05/30 12:18:01;;;;;;;6.18;4.38;;;20.60;55.00;;;;;;5073696;28;20109;-56
2021/05/30 12:20:30;;;;;;;5.80;4.30;;;20.80;53.00;;;;;;5072981;28;20464;-56
2021/05/30 12:23:13;;;;;;;7.95;4.80;;;20.60;53.80;;;;;;5072726;28;20048;-56
2021/05/30 12:25:59;;;;;;;6.78;5.20;;;20.60;53.50;;;;;;5073022;28;20060;-55
2021/05/30 12:28:33;;;;;;;7.07;4.78;;;20.80;51.80;;;;;;5063538;28;20136;-56
2021/05/30 12:31:04;;;;;;;6.40;4.40;;;20.80;52.50;;;;;;5071195;28;20568;-55
2021/05/30 12:33:53;;;;;;;8.10;5.50;;;20.60;51.10;;;;;;5055030;28;20044;-60
2021/05/30 12:36:45;;;;;;;5.68;4.90;;;20.40;52.30;;;;;;5073505;28;20111;-57
2021/05/30 12:39:15;;;;;;;7.70;6.40;;;20.60;51.70;;;;;;5072743;28;20510;-55
2021/05/30 12:41:44;;;;;;;8.07;4.65;;;20.70;52.70;;;;;;5071804;28;20452;-55